Fairbanks, AK (99709)

5:58 AM AKDT on October 25, 2014 (GMT -0800)
Homestead | Change Station
CLOSE
Current Station
Personal Weather Station
Location: Fairbanks, AK
Elevation: 446 ft
Nearby Weather Stations

Elev 446 ft 64.86 °N, 147.78 °W | Updated 36 minutes ago

Overcast
Overcast
22.5 °F
Feels Like 22 °F
N
0.0
Wind Variable Wind from NE

Today
High -- | Low -- °F
--% Chance of Precip.
Yesterday
High -- | Low -- °F
Precip. -- in
9:16 AM 5:53 PM
Waxing Crescent, 3% visible
Pressure 30.02 in
Visibility 10.0 miles
Clouds Few 500 ft
Mostly Cloudy 1800 ft
Overcast 3500 ft
Windchill 22 °F
Dew Point 21 °F
Humidity 94%
Rainfall 0.00 in
Snow Depth Not available.
UV 0 out of 12
Pollen Not available.
Air Quality Not available.
Flu Activity Local Activity
METAR PAFA 251353Z 00000KT 10SM FEW005 BKN018 OVC035 M04/M07 A2999 RMK AO2 SLP165 T10441067

More Conditions Fewer Conditions

Pressure 30.02 in
Visibility 10.0 miles
Clouds Few 500 ft
Mostly Cloudy 1800 ft
Overcast 3500 ft
Windchill 22 °F
Dew Point 21 °F
Humidity 94%
Rainfall 0.00 in
Snow Depth Not available.
UV 0 out of 12
Pollen Not available.
Air Quality Not available.
Flu Activity Local Activity
METAR PAFA 251353Z 00000KT 10SM FEW005 BKN018 OVC035 M04/M07 A2999 RMK AO2 SLP165 T10441067

More Conditions Fewer Conditions

10-Day Weather Forecast

Almanac

Astronomy

Oct. 25, 2014 Rise Set
Actual Time 9:16 AM AKDT 5:53 PM AKDT
Civil Twilight 8:24 AM AKDT 6:45 PM AKDT
Nautical Twilight 7:26 AM AKDT 7:43 PM AKDT
Astronomical Twilight 6:29 AM AKDT 8:39 PM AKDT
Moon 11:41 AM AKDT 6:44 PM AKDT
Length of Visible Light 10h 21m
Length of Day
8h 36m
Tomorrow will be 6m 45s shorter.
Waxing Crescent, 3% of the Moon is Illuminated
Today
Waxing Crescent
Oct 30
First Quarter
Nov 6
Full
Nov 14
Last Quarter
Nov 22
New

Today's Extremes

State Highs State Lows

Community

WunderPhotos

Upload Photos

1,764,830 photos uploaded!

Nearby

Snow Depth

Station Depth Elevation
Little Chena Ridge 6 in 2000 ft
Munson Ridge 12 in 3100 ft
Mt. Ryan 8 in 2800 ft
Monument Creek 6 in 1850 ft
Teuchet Creek 6 in 1640 ft

Earthquake Activity

City Distance Mag. Time & Date
No recent earthquake activity has been reported nearby.
Minimum magnitude displayed is 2.5.

Coastal Water Temperatures

Place Temperature
No Stations Reporting

Nearby Weather Stations